createdAt,value
2023-05-25T00:01:00.529Z,71.84
2023-05-25T00:03:31.328Z,72.21
2023-05-25T00:06:02.391Z,72.86
2023-05-25T00:08:30.316Z,73.60
2023-05-25T00:10:58.205Z,73.79
2023-05-25T00:13:26.023Z,73.76
2023-05-25T00:15:53.820Z,75.81
2023-05-25T00:18:21.808Z,75.54
2023-05-25T00:20:49.571Z,76.78
2023-05-25T00:23:18.686Z,75.48
2023-05-25T00:25:46.624Z,76.15
2023-05-25T00:28:14.497Z,75.40
2023-05-25T00:30:42.320Z,76.03
2023-05-25T00:33:10.660Z,76.45
2023-05-25T00:35:38.545Z,75.94
2023-05-25T00:38:06.280Z,76.18
2023-05-25T00:40:36.748Z,76.30
2023-05-25T00:43:04.541Z,76.56
2023-05-25T00:45:32.312Z,76.11
2023-05-25T00:48:01.480Z,77.31
2023-05-25T00:50:38.562Z,76.76
2023-05-25T00:53:07.159Z,78.36
2023-05-25T00:55:38.345Z,78.23
2023-05-25T00:58:06.689Z,77.73
2023-05-25T01:00:35.957Z,77.51
2023-05-25T01:03:11.789Z,77.55
2023-05-25T01:05:45.121Z,79.49
2023-05-25T01:08:15.110Z,78.81
2023-05-25T01:10:47.021Z,78.95
2023-05-25T01:13:18.364Z,81.55
2023-05-25T01:15:46.547Z,81.91
2023-05-25T01:18:16.053Z,80.67
2023-05-25T01:21:13.000Z,79.35
2023-05-25T01:23:45.269Z,78.38
2023-05-25T01:26:16.645Z,78.60
2023-05-25T01:28:51.109Z,79.37
2023-05-25T01:31:21.881Z,81.14
2023-05-25T01:33:51.543Z,81.92
2023-05-25T01:36:20.941Z,80.94
2023-05-25T01:38:49.766Z,81.58
2023-05-25T01:41:17.543Z,81.64
2023-05-25T01:43:45.599Z,80.03
2023-05-25T01:46:19.816Z,81.77
2023-05-25T01:48:55.922Z,84.54
2023-05-25T01:51:33.367Z,82.29
2023-05-25T01:54:08.505Z,79.80
2023-05-25T01:56:37.234Z,84.37
2023-05-25T01:59:07.663Z,84.69
2023-05-25T02:01:37.581Z,84.12
2023-05-25T02:04:05.884Z,82.28
2023-05-25T02:06:36.879Z,81.77
2023-05-25T02:09:05.049Z,83.19
2023-05-25T02:11:32.793Z,81.62
2023-05-25T02:14:00.554Z,83.41
2023-05-25T02:16:29.912Z,85.16
2023-05-25T02:18:59.161Z,86.10
2023-05-25T02:21:26.985Z,83.76
2023-05-25T02:23:58.096Z,85.15
2023-05-25T02:26:26.425Z,85.28
2023-05-25T02:28:54.280Z,85.62
2023-05-25T02:31:22.126Z,84.71
2023-05-25T02:33:49.918Z,85.05
2023-05-25T02:36:17.649Z,86.79
2023-05-25T02:38:45.935Z,83.95
2023-05-25T02:41:16.479Z,82.76
2023-05-25T02:43:44.321Z,86.46
2023-05-25T02:46:12.067Z,84.72
2023-05-25T02:48:40.040Z,85.33
2023-05-25T02:51:07.782Z,85.79
2023-05-25T02:53:35.540Z,88.33
2023-05-25T02:56:03.951Z,86.22
2023-05-25T02:58:33.167Z,86.08
2023-05-25T03:01:01.236Z,87.14
2023-05-25T03:03:29.204Z,87.60
2023-05-25T03:05:58.427Z,87.64
2023-05-25T03:08:26.217Z,86.45
2023-05-25T03:10:54.020Z,85.55
2023-05-25T03:13:21.744Z,83.83
2023-05-25T03:15:51.072Z,84.95
2023-05-25T03:18:19.021Z,84.30
2023-05-25T03:20:46.841Z,86.51
2023-05-25T03:23:14.786Z,88.05
2023-05-25T03:25:42.788Z,87.77
2023-05-25T03:28:10.843Z,87.88
2023-05-25T03:30:38.603Z,86.59
2023-05-25T03:33:07.778Z,88.45
2023-05-25T03:35:35.490Z,88.29
2023-05-25T03:38:03.224Z,89.13
2023-05-25T03:40:31.044Z,87.59
2023-05-25T03:42:58.804Z,89.84
2023-05-25T03:45:26.543Z,88.42
2023-05-25T03:47:54.323Z,86.76
2023-05-25T03:50:23.504Z,87.71
2023-05-25T03:52:51.285Z,86.43
2023-05-25T03:55:19.539Z,86.82
2023-05-25T03:57:47.295Z,86.62
2023-05-25T04:00:16.891Z,89.13
2023-05-25T04:02:44.868Z,91.13
2023-05-25T04:05:12.633Z,89.73
2023-05-25T04:07:41.748Z,88.63
2023-05-25T04:10:10.037Z,90.77
2023-05-25T04:12:38.527Z,91.60
2023-05-25T04:15:09.147Z,88.51
2023-05-25T04:17:39.652Z,89.01
2023-05-25T04:20:09.838Z,89.44
2023-05-25T04:22:38.927Z,87.43
2023-05-25T04:25:08.930Z,88.91
2023-05-25T04:27:36.697Z,91.16
2023-05-25T04:30:04.836Z,90.41
2023-05-25T04:32:32.871Z,91.39
2023-05-25T04:35:00.642Z,88.37
2023-05-25T04:37:29.043Z,90.71
2023-05-25T04:39:57.687Z,93.01
2023-05-25T04:42:27.021Z,89.18
2023-05-25T04:44:55.775Z,89.50
2023-05-25T04:47:24.939Z,90.64
2023-05-25T04:49:52.955Z,89.79
2023-05-25T04:52:20.718Z,88.02
2023-05-25T04:54:48.506Z,90.25
2023-05-25T04:57:16.410Z,89.53
2023-05-25T04:59:45.761Z,87.04
2023-05-25T05:02:13.718Z,85.20
2023-05-25T05:04:42.382Z,89.38
2023-05-25T05:07:10.177Z,87.60
2023-05-25T05:09:37.890Z,87.15
2023-05-25T05:12:06.309Z,88.44
2023-05-25T05:14:34.033Z,86.48
2023-05-25T05:17:03.483Z,85.10
2023-05-25T05:19:31.405Z,83.95
2023-05-25T05:21:59.133Z,84.28
2023-05-25T05:24:27.253Z,84.32
2023-05-25T05:26:58.967Z,84.90
2023-05-25T05:29:28.651Z,84.40
2023-05-25T05:31:56.765Z,84.05
2023-05-25T05:34:25.983Z,83.57
2023-05-25T05:36:57.894Z,84.64
2023-05-25T05:39:27.092Z,84.25
2023-05-25T05:41:54.868Z,84.80
2023-05-25T05:44:26.014Z,86.10
2023-05-25T05:47:01.145Z,86.45
2023-05-25T05:49:31.751Z,87.61
2023-05-25T05:51:59.935Z,84.29
2023-05-25T05:54:28.615Z,82.57
2023-05-25T05:56:56.431Z,84.12
2023-05-25T05:59:24.321Z,84.57
2023-05-25T06:01:52.156Z,84.69
2023-05-25T06:04:20.337Z,84.25
2023-05-25T06:06:49.455Z,84.66
2023-05-25T06:09:17.280Z,85.51
2023-05-25T06:11:45.253Z,84.66
2023-05-25T06:14:12.997Z,85.21
2023-05-25T06:16:40.895Z,85.67
2023-05-25T06:19:08.729Z,85.35
2023-05-25T06:21:36.990Z,83.87
2023-05-25T06:24:07.177Z,85.61
2023-05-25T06:26:34.958Z,85.97
2023-05-25T06:29:02.895Z,85.90
2023-05-25T06:31:30.901Z,86.20
2023-05-25T06:33:58.781Z,83.77
2023-05-25T06:36:27.485Z,83.38
2023-05-25T06:38:55.474Z,82.67
2023-05-25T06:41:24.602Z,82.60
2023-05-25T06:43:52.400Z,82.13
2023-05-25T06:46:21.525Z,83.16
2023-05-25T06:48:49.339Z,84.99
2023-05-25T06:51:17.094Z,82.41
2023-05-25T06:53:45.264Z,80.77
2023-05-25T06:56:12.980Z,80.30
2023-05-25T06:58:42.174Z,79.24
2023-05-25T07:01:09.894Z,79.53
2023-05-25T07:03:38.667Z,80.22
2023-05-25T07:06:07.396Z,82.83
2023-05-25T07:08:35.316Z,80.85
2023-05-25T07:11:03.051Z,79.57
2023-05-25T07:13:30.893Z,80.37
2023-05-25T07:16:00.023Z,81.46
2023-05-25T07:18:27.884Z,80.02
2023-05-25T07:20:55.773Z,81.28
2023-05-25T07:23:27.076Z,79.46
2023-05-25T07:25:56.510Z,79.03
2023-05-25T07:28:24.314Z,74.62
2023-05-25T07:30:52.091Z,74.54
2023-05-25T07:33:22.033Z,74.99
2023-05-25T07:35:51.244Z,75.26
2023-05-25T07:38:19.013Z,73.23
2023-05-25T07:40:47.497Z,72.29
2023-05-25T07:43:15.466Z,73.00
2023-05-25T07:45:44.370Z,72.98
2023-05-25T07:48:19.077Z,73.25
2023-05-25T07:50:48.225Z,72.50
2023-05-25T07:53:15.997Z,72.46
2023-05-25T07:55:44.006Z,71.78
2023-05-25T07:58:11.863Z,71.75
2023-05-25T08:00:39.734Z,72.59
2023-05-25T08:03:07.762Z,72.90
2023-05-25T08:05:35.710Z,72.77
2023-05-25T08:08:04.888Z,72.07
2023-05-25T08:10:32.670Z,72.07
2023-05-25T08:13:00.682Z,71.29
2023-05-25T08:15:28.506Z,70.19
2023-05-25T08:17:56.905Z,69.63
2023-05-25T08:20:25.842Z,67.93
2023-05-25T08:22:54.542Z,67.06
2023-05-25T08:25:23.741Z,65.46
2023-05-25T08:27:51.686Z,63.18
2023-05-25T08:30:19.479Z,65.12
2023-05-25T08:32:47.448Z,65.11
2023-05-25T08:35:15.495Z,65.38
2023-05-25T08:37:43.544Z,65.52
2023-05-25T08:40:15.855Z,65.18
2023-05-25T08:42:45.797Z,66.24
2023-05-25T08:45:26.366Z,65.82
2023-05-25T08:48:02.605Z,64.99
2023-05-25T08:50:33.528Z,64.33
2023-05-25T08:53:06.328Z,64.10
2023-05-25T08:55:36.916Z,65.23
2023-05-25T08:58:15.602Z,63.97
2023-05-25T09:00:49.791Z,62.79
2023-05-25T09:03:19.029Z,61.86
2023-05-25T09:05:47.694Z,60.62
2023-05-25T09:08:16.567Z,60.96
2023-05-25T09:10:44.528Z,60.89
2023-05-25T09:13:21.991Z,61.23
2023-05-25T09:15:52.061Z,59.05
2023-05-25T09:18:20.051Z,58.04
2023-05-25T09:20:48.190Z,57.29
2023-05-25T09:23:16.602Z,59.67
2023-05-25T09:25:45.373Z,58.88
2023-05-25T09:30:46.448Z,58.49
2023-05-25T09:33:17.650Z,57.24
2023-05-25T09:35:46.411Z,56.86
2023-05-25T09:38:14.962Z,55.94
2023-05-25T09:40:43.907Z,55.26
2023-05-25T09:43:15.755Z,55.47
2023-05-25T09:45:53.460Z,55.21
2023-05-25T09:48:23.132Z,55.86
2023-05-25T09:50:52.137Z,55.41
2023-05-25T09:53:20.160Z,56.11
2023-05-25T09:55:53.682Z,55.87
2023-05-25T09:58:23.900Z,56.09
2023-05-25T10:00:55.851Z,56.65
2023-05-25T10:03:23.812Z,55.94
2023-05-25T10:05:52.908Z,55.50
2023-05-25T10:08:23.447Z,57.43
2023-05-25T10:10:51.470Z,57.06
2023-05-25T10:13:22.857Z,56.78
2023-05-25T10:15:55.287Z,56.49
2023-05-25T10:18:26.715Z,57.14
2023-05-25T10:21:03.007Z,56.67
2023-05-25T10:23:37.006Z,56.18
2023-05-25T10:26:08.699Z,54.83
2023-05-25T10:28:38.116Z,53.09
2023-05-25T10:31:10.283Z,52.77
2023-05-25T10:33:38.715Z,51.46
2023-05-25T10:36:11.277Z,53.23
2023-05-25T10:38:41.185Z,53.81
2023-05-25T10:41:11.575Z,54.55
2023-05-25T10:43:41.041Z,53.83
2023-05-25T10:46:12.119Z,52.96
2023-05-25T10:48:41.343Z,54.20
2023-05-25T10:51:11.829Z,52.67
2023-05-25T10:53:40.053Z,51.25
2023-05-25T10:56:10.548Z,51.25
2023-05-25T10:58:42.673Z,52.45
2023-05-25T11:01:13.898Z,51.70
2023-05-25T11:03:58.734Z,51.83
2023-05-25T11:06:59.008Z,52.64
2023-05-25T11:09:27.726Z,51.54
2023-05-25T11:12:08.612Z,50.47
2023-05-25T11:14:39.837Z,50.17
2023-05-25T11:17:11.830Z,49.86
2023-05-25T11:19:42.469Z,48.58
2023-05-25T11:22:17.875Z,50.35
2023-05-25T11:24:46.127Z,48.93
2023-05-25T11:27:14.725Z,49.91
2023-05-25T11:29:42.667Z,49.27
2023-05-25T11:32:16.200Z,48.63
2023-05-25T11:34:46.774Z,48.24
2023-05-25T11:37:17.535Z,48.27
2023-05-25T11:39:47.961Z,47.54
2023-05-25T11:42:16.688Z,47.23
2023-05-25T11:44:45.072Z,46.54
2023-05-25T11:47:18.716Z,46.18
2023-05-25T11:49:49.783Z,47.01
2023-05-25T11:52:19.269Z,47.14
2023-05-25T11:54:47.342Z,46.56
2023-05-25T11:57:16.247Z,46.69
2023-05-25T11:59:50.961Z,47.53
2023-05-25T12:02:20.909Z,47.27
2023-05-25T12:04:56.112Z,46.47
2023-05-25T12:07:24.826Z,46.64
2023-05-25T12:09:52.722Z,46.57
2023-05-25T12:12:20.920Z,45.91
2023-05-25T12:14:49.357Z,46.55
2023-05-25T12:17:18.192Z,45.61
2023-05-25T12:19:47.498Z,45.25
2023-05-25T12:22:16.385Z,45.38
2023-05-25T12:24:44.363Z,46.42
2023-05-25T12:27:18.540Z,44.07
2023-05-25T12:29:50.204Z,43.97
2023-05-25T12:32:17.982Z,43.78
2023-05-25T12:34:47.151Z,42.79
2023-05-25T12:37:22.400Z,44.17
2023-05-25T12:39:50.821Z,45.36
2023-05-25T12:42:19.306Z,44.06
2023-05-25T12:44:47.531Z,45.23
2023-05-25T12:47:17.206Z,44.61
2023-05-25T12:49:47.774Z,43.33
2023-05-25T12:52:33.557Z,40.95
2023-05-25T12:55:20.384Z,42.35
2023-05-25T12:57:52.416Z,42.69
2023-05-25T13:00:24.220Z,43.04
2023-05-25T13:02:52.544Z,44.02
2023-05-25T13:05:23.379Z,44.40
2023-05-25T13:07:52.210Z,43.76
2023-05-25T13:10:20.315Z,44.34
2023-05-25T13:12:48.848Z,43.94
2023-05-25T13:15:18.616Z,42.88
2023-05-25T13:17:46.448Z,42.99
2023-05-25T13:20:15.141Z,42.06
2023-05-25T13:22:45.319Z,43.27
2023-05-25T13:25:14.488Z,42.86
2023-05-25T13:27:45.620Z,41.85
2023-05-25T13:30:14.696Z,41.32
2023-05-25T13:32:43.750Z,41.14
2023-05-25T13:35:18.459Z,41.62
2023-05-25T13:37:47.619Z,42.10
2023-05-25T13:40:15.609Z,40.97
2023-05-25T13:42:43.332Z,41.78
2023-05-25T13:45:11.849Z,41.36
2023-05-25T13:47:39.775Z,41.53
2023-05-25T13:50:08.410Z,41.21
2023-05-25T13:52:37.026Z,42.35
2023-05-25T13:55:07.413Z,40.71
2023-05-25T13:57:35.210Z,40.11
2023-05-25T14:00:03.007Z,41.33
2023-05-25T14:02:32.147Z,41.71
2023-05-25T14:05:00.016Z,40.89
2023-05-25T14:07:27.772Z,40.73
2023-05-25T14:09:56.688Z,41.44
2023-05-25T14:12:27.201Z,41.29
2023-05-25T14:14:54.931Z,40.68
2023-05-25T14:17:22.702Z,41.03
2023-05-25T14:19:50.505Z,41.66
2023-05-25T14:22:18.276Z,40.39
2023-05-25T14:24:46.021Z,41.65
2023-05-25T14:27:15.992Z,41.90
2023-05-25T14:29:45.155Z,42.16
2023-05-25T14:32:14.480Z,40.88
2023-05-25T14:34:42.792Z,40.99
2023-05-25T14:37:11.143Z,41.32
2023-05-25T14:39:39.080Z,40.18
2023-05-25T14:42:07.101Z,42.42
2023-05-25T14:44:34.866Z,41.63
2023-05-25T14:47:04.179Z,42.45
2023-05-25T14:49:32.348Z,42.04
2023-05-25T14:52:00.101Z,42.48
2023-05-25T14:54:27.865Z,42.29
2023-05-25T14:56:55.610Z,42.13
2023-05-25T14:59:23.415Z,41.66
2023-05-25T15:01:52.707Z,42.31
2023-05-25T15:04:22.082Z,42.37
2023-05-25T15:06:49.913Z,42.58
2023-05-25T15:09:19.228Z,41.86
2023-05-25T15:11:47.063Z,42.27
2023-05-25T15:14:16.289Z,42.04
2023-05-25T15:16:44.339Z,41.60
2023-05-25T15:19:13.919Z,40.97
2023-05-25T15:21:45.146Z,42.00
2023-05-25T15:24:16.563Z,42.95
2023-05-25T15:26:44.448Z,43.71
2023-05-25T15:29:12.884Z,43.43
2023-05-25T15:31:40.765Z,42.62
2023-05-25T15:34:09.158Z,42.22
2023-05-25T15:36:36.996Z,43.38
2023-05-25T15:39:08.916Z,43.27
2023-05-25T15:41:36.834Z,43.55
2023-05-25T15:44:08.232Z,43.18
2023-05-25T15:46:36.289Z,42.96
2023-05-25T15:49:10.748Z,43.97
2023-05-25T15:51:43.778Z,44.03
2023-05-25T15:54:14.861Z,43.28
2023-05-25T15:56:42.990Z,43.51
2023-05-25T15:59:12.688Z,43.30
2023-05-25T16:01:40.881Z,42.66
2023-05-25T16:04:09.165Z,42.77
2023-05-25T16:06:38.374Z,43.84
2023-05-25T16:09:06.691Z,44.63
2023-05-25T16:11:35.865Z,43.87
2023-05-25T16:14:03.773Z,43.96
2023-05-25T16:16:31.637Z,43.46
2023-05-25T16:18:59.511Z,44.11
2023-05-25T16:21:27.278Z,44.36
2023-05-25T16:23:55.026Z,44.80
2023-05-25T16:26:22.808Z,44.17
2023-05-25T16:28:52.398Z,44.10
2023-05-25T16:31:20.229Z,43.87
2023-05-25T16:33:48.059Z,45.90
2023-05-25T16:36:17.035Z,48.35
2023-05-25T16:38:45.796Z,46.94
2023-05-25T16:41:13.717Z,45.07
2023-05-25T16:43:41.537Z,45.80
2023-05-25T16:46:10.687Z,47.41
2023-05-25T16:48:38.457Z,47.32
2023-05-25T16:51:07.346Z,48.87
2023-05-25T16:53:35.303Z,48.84
2023-05-25T16:56:03.070Z,49.66
2023-05-25T16:58:30.979Z,49.26
2023-05-25T17:00:58.760Z,48.82
2023-05-25T17:03:28.006Z,49.74
2023-05-25T17:05:55.916Z,50.86
2023-05-25T17:08:23.661Z,50.97
2023-05-25T17:10:51.502Z,50.92
2023-05-25T17:13:19.267Z,51.41
2023-05-25T17:15:47.334Z,52.64
2023-05-25T17:18:15.801Z,52.51
2023-05-25T17:20:45.302Z,52.38
2023-05-25T17:23:13.103Z,52.92
2023-05-25T17:25:40.884Z,52.14
2023-05-25T17:28:08.918Z,52.47
2023-05-25T17:30:36.867Z,52.30
2023-05-25T17:33:04.838Z,53.99
2023-05-25T17:35:32.808Z,54.38
2023-05-25T17:38:01.931Z,54.19
2023-05-25T17:40:29.794Z,53.66
2023-05-25T17:42:57.605Z,53.35
2023-05-25T17:45:25.526Z,53.58
2023-05-25T17:47:53.337Z,53.80
2023-05-25T17:50:21.115Z,54.95
2023-05-25T17:52:48.837Z,54.45
2023-05-25T17:55:17.981Z,55.11
2023-05-25T17:57:45.804Z,54.70
2023-05-25T18:00:15.521Z,54.61
2023-05-25T18:02:43.374Z,57.41
2023-05-25T18:05:11.136Z,57.60
2023-05-25T18:07:38.900Z,57.55
2023-05-25T18:10:07.288Z,57.21
2023-05-25T18:12:36.514Z,57.21
2023-05-25T18:15:04.412Z,58.10
2023-05-25T18:17:32.225Z,60.03
2023-05-25T18:20:00.154Z,60.23
2023-05-25T18:22:27.999Z,61.04
2023-05-25T18:24:55.810Z,61.75
2023-05-25T18:27:23.595Z,60.81
2023-05-25T18:29:52.656Z,60.30
2023-05-25T18:32:20.514Z,61.73
2023-05-25T18:34:48.533Z,60.98
2023-05-25T18:37:16.291Z,62.10
2023-05-25T18:39:44.048Z,62.05
2023-05-25T18:42:11.764Z,62.75
2023-05-25T18:44:40.125Z,63.51
2023-05-25T18:47:09.302Z,62.75
2023-05-25T18:49:37.996Z,62.63
2023-05-25T18:52:06.526Z,63.15
2023-05-25T18:54:34.215Z,64.05
2023-05-25T18:57:03.028Z,65.51
2023-05-25T18:59:31.501Z,65.81
2023-05-25T19:01:59.291Z,64.57
2023-05-25T19:04:28.496Z,64.24
2023-05-25T19:06:56.273Z,64.35
2023-05-25T19:09:23.987Z,65.68
2023-05-25T19:11:51.825Z,64.36
2023-05-25T19:14:19.679Z,65.71
2023-05-25T19:16:48.717Z,66.88
2023-05-25T19:19:16.929Z,64.22
2023-05-25T19:21:46.274Z,66.11
2023-05-25T19:24:14.051Z,67.57
2023-05-25T19:26:41.812Z,66.92
2023-05-25T19:29:09.611Z,67.60
2023-05-25T19:31:37.530Z,65.40
2023-05-25T19:34:05.306Z,67.49
2023-05-25T19:36:33.189Z,68.07
2023-05-25T19:39:02.313Z,69.25
2023-05-25T19:41:30.193Z,67.40
2023-05-25T19:43:57.981Z,69.71
2023-05-25T19:46:25.756Z,70.78
2023-05-25T19:48:53.583Z,69.41
2023-05-25T19:51:21.519Z,68.94
2023-05-25T19:53:51.336Z,69.72
2023-05-25T19:56:21.298Z,70.64
2023-05-25T19:58:49.439Z,69.40
2023-05-25T20:01:17.449Z,71.10
2023-05-25T20:03:45.834Z,71.78
2023-05-25T20:06:13.744Z,71.50
2023-05-25T20:08:41.514Z,71.62
2023-05-25T20:11:09.235Z,71.38
2023-05-25T20:13:38.456Z,72.36
2023-05-25T20:16:09.976Z,71.91
2023-05-25T20:18:38.121Z,74.61
2023-05-25T20:21:06.201Z,74.82
2023-05-25T20:23:33.917Z,73.54
2023-05-25T20:26:01.678Z,73.18
2023-05-25T20:28:29.466Z,72.73
2023-05-25T20:30:58.575Z,74.49
2023-05-25T20:33:26.332Z,73.03
2023-05-25T20:35:54.064Z,73.54
2023-05-25T20:38:21.779Z,74.71
2023-05-25T20:40:49.539Z,72.97
2023-05-25T20:43:17.330Z,73.74
2023-05-25T20:45:45.238Z,74.58
2023-05-25T20:48:15.453Z,74.48
2023-05-25T20:50:43.192Z,75.15
2023-05-25T20:53:11.616Z,75.86
2023-05-25T20:55:39.457Z,76.21
2023-05-25T20:58:07.225Z,76.34
2023-05-25T21:00:35.313Z,75.11
2023-05-25T21:03:04.855Z,76.96
2023-05-25T21:05:34.064Z,75.77
2023-05-25T21:08:03.446Z,78.86
2023-05-25T21:10:31.279Z,78.73
2023-05-25T21:12:59.031Z,78.54
2023-05-25T21:15:27.469Z,79.77
2023-05-25T21:17:55.347Z,79.34
2023-05-25T21:20:23.200Z,79.07
2023-05-25T21:22:52.373Z,79.36
2023-05-25T21:25:20.159Z,80.78
2023-05-25T21:27:48.012Z,79.88
2023-05-25T21:30:16.112Z,78.55
2023-05-25T21:32:43.950Z,81.35
2023-05-25T21:35:11.779Z,80.31
2023-05-25T21:37:39.576Z,81.98
2023-05-25T21:40:09.747Z,81.31
2023-05-25T21:42:37.509Z,78.37
2023-05-25T21:45:05.951Z,81.59
2023-05-25T21:47:33.975Z,81.61
2023-05-25T21:50:01.806Z,82.26
2023-05-25T21:52:29.567Z,84.03
2023-05-25T21:54:57.921Z,83.19
2023-05-25T21:57:27.039Z,82.81
2023-05-25T21:59:54.919Z,82.41
2023-05-25T22:02:24.330Z,83.57
2023-05-25T22:04:52.225Z,83.43
2023-05-25T22:07:19.991Z,84.52
2023-05-25T22:09:47.713Z,83.64
2023-05-25T22:12:15.453Z,84.21
2023-05-25T22:14:44.598Z,83.52
2023-05-25T22:17:12.743Z,84.41
2023-05-25T22:19:41.829Z,83.42
2023-05-25T22:22:11.081Z,84.56
2023-05-25T22:24:38.865Z,85.69
2023-05-25T22:27:07.585Z,86.44
2023-05-25T22:29:35.300Z,84.71
2023-05-25T22:32:04.610Z,84.10
2023-05-25T22:34:32.351Z,86.58
2023-05-25T22:37:00.127Z,84.58
2023-05-25T22:39:27.902Z,85.27
2023-05-25T22:41:55.809Z,85.43
2023-05-25T22:44:23.561Z,85.42
2023-05-25T22:46:51.471Z,84.34
2023-05-25T22:49:20.746Z,84.54
2023-05-25T22:51:48.566Z,86.25
2023-05-25T22:54:16.375Z,85.39
2023-05-25T22:56:44.149Z,86.21
2023-05-25T22:59:12.299Z,85.07
2023-05-25T23:01:40.162Z,85.44
2023-05-25T23:04:08.914Z,87.14
2023-05-25T23:06:38.218Z,87.42
2023-05-25T23:09:05.997Z,87.85
2023-05-25T23:11:33.717Z,87.95
2023-05-25T23:14:01.758Z,87.78
2023-05-25T23:16:29.723Z,88.08
2023-05-25T23:18:57.632Z,89.12
2023-05-25T23:21:25.402Z,87.99
2023-05-25T23:23:54.570Z,90.27
2023-05-25T23:26:22.341Z,87.71
2023-05-25T23:28:50.134Z,89.80
2023-05-25T23:31:18.051Z,88.78
2023-05-25T23:33:45.882Z,86.66
2023-05-25T23:36:14.091Z,86.75
2023-05-25T23:38:41.947Z,86.81
2023-05-25T23:41:11.113Z,86.02
2023-05-25T23:43:38.873Z,87.55
2023-05-25T23:46:07.324Z,87.06
2023-05-25T23:48:35.128Z,89.62
2023-05-25T23:51:02.844Z,88.98
2023-05-25T23:53:30.599Z,91.54
2023-05-25T23:55:58.367Z,89.62
2023-05-25T23:58:27.467Z,90.12
